createdAt,value
2022-07-30T00:01:30.940Z,20.80
2022-07-30T00:04:33.948Z,20.80
2022-07-30T00:07:36.881Z,20.70
2022-07-30T00:10:41.263Z,20.70
2022-07-30T00:13:44.325Z,20.70
2022-07-30T00:16:47.306Z,20.60
2022-07-30T00:19:50.217Z,20.60
2022-07-30T00:22:53.552Z,20.60
2022-07-30T00:25:57.798Z,20.60
2022-07-30T00:29:00.820Z,20.50
2022-07-30T00:32:03.803Z,20.50
2022-07-30T00:35:07.849Z,20.40
2022-07-30T00:38:10.738Z,20.40
2022-07-30T00:41:15.654Z,20.30
2022-07-30T00:44:18.743Z,20.30
2022-07-30T00:47:22.092Z,20.30
2022-07-30T00:50:25.050Z,20.30
2022-07-30T00:53:28.017Z,20.20
2022-07-30T00:56:32.485Z,20.20
2022-07-30T00:59:35.405Z,20.10
2022-07-30T01:02:38.389Z,20.10
2022-07-30T01:05:41.481Z,20.10
2022-07-30T01:08:44.472Z,20.00
2022-07-30T01:11:48.912Z,20.00
2022-07-30T01:14:51.993Z,20.00
2022-07-30T01:17:57.860Z,20.00
2022-07-30T01:21:06.614Z,20.00
2022-07-30T01:24:20.493Z,19.90
2022-07-30T01:27:26.067Z,19.90
2022-07-30T01:30:32.167Z,19.90
2022-07-30T01:33:41.633Z,19.90
2022-07-30T01:36:47.561Z,19.90
2022-07-30T01:39:52.033Z,19.80
2022-07-30T01:42:58.475Z,19.80
2022-07-30T01:46:03.819Z,19.70
2022-07-30T01:49:08.879Z,19.70
2022-07-30T01:52:13.374Z,19.70
2022-07-30T01:55:18.751Z,19.70
2022-07-30T01:58:25.670Z,19.70
2022-07-30T02:01:28.719Z,19.60
2022-07-30T02:04:32.023Z,19.60
2022-07-30T02:07:40.613Z,19.50
2022-07-30T02:10:46.963Z,19.50
2022-07-30T02:13:55.923Z,19.50
2022-07-30T02:17:02.298Z,19.50
2022-07-30T02:20:09.722Z,19.50
2022-07-30T02:23:16.200Z,19.50
2022-07-30T02:26:23.844Z,19.40
2022-07-30T02:29:33.369Z,19.40
2022-07-30T02:32:39.740Z,19.40
2022-07-30T02:35:43.247Z,19.40
2022-07-30T02:38:47.700Z,19.30
2022-07-30T02:41:53.748Z,19.30
2022-07-30T02:45:00.208Z,19.30
2022-07-30T02:48:06.615Z,19.20
2022-07-30T02:51:11.132Z,19.20
2022-07-30T02:54:15.858Z,19.20
2022-07-30T02:57:21.141Z,19.20
2022-07-30T03:00:26.961Z,19.20
2022-07-30T03:03:30.486Z,19.10
2022-07-30T03:06:34.415Z,19.10
2022-07-30T03:09:50.907Z,19.10
2022-07-30T03:12:57.144Z,19.10
2022-07-30T03:16:05.274Z,19.00
2022-07-30T03:19:11.014Z,19.00
2022-07-30T03:22:15.650Z,19.00
2022-07-30T03:25:23.784Z,19.00
2022-07-30T03:28:27.811Z,19.00
2022-07-30T03:31:36.139Z,19.00
2022-07-30T03:34:40.951Z,19.00
2022-07-30T03:37:44.793Z,19.00
2022-07-30T03:40:48.694Z,19.00
2022-07-30T03:43:52.694Z,18.90
2022-07-30T03:46:59.098Z,19.00
2022-07-30T03:50:03.339Z,18.90
2022-07-30T03:53:06.971Z,18.90
2022-07-30T03:56:11.209Z,18.90
2022-07-30T03:59:15.790Z,19.00
2022-07-30T04:02:20.327Z,18.90
2022-07-30T04:05:23.860Z,19.00
2022-07-30T04:08:27.127Z,19.00
2022-07-30T04:11:40.471Z,19.00
2022-07-30T04:14:45.998Z,18.90
2022-07-30T04:17:54.626Z,19.00
2022-07-30T04:20:59.205Z,19.00
2022-07-30T04:24:05.232Z,19.00
2022-07-30T04:27:08.930Z,19.10
2022-07-30T04:30:13.084Z,19.10
2022-07-30T04:33:17.429Z,19.00
2022-07-30T04:36:20.419Z,19.10
2022-07-30T04:39:23.446Z,19.10
2022-07-30T04:42:27.354Z,19.10
2022-07-30T04:45:30.378Z,19.20
2022-07-30T04:48:34.698Z,19.20
2022-07-30T04:51:39.403Z,19.30
2022-07-30T04:54:45.008Z,19.30
2022-07-30T04:57:49.597Z,19.30
2022-07-30T05:00:54.118Z,19.30
2022-07-30T05:04:00.961Z,19.40
2022-07-30T05:07:05.091Z,19.50
2022-07-30T05:10:09.173Z,19.50
2022-07-30T05:13:14.291Z,19.50
2022-07-30T05:16:17.750Z,19.60
2022-07-30T05:19:23.322Z,19.60
2022-07-30T05:22:30.072Z,19.70
2022-07-30T05:25:33.003Z,19.70
2022-07-30T05:28:36.243Z,19.80
2022-07-30T05:31:40.243Z,19.90
2022-07-30T05:34:44.510Z,20.00
2022-07-30T05:37:53.034Z,20.00
2022-07-30T05:40:56.049Z,20.10
2022-07-30T05:43:59.034Z,20.20
2022-07-30T05:47:02.297Z,20.30
2022-07-30T05:50:07.980Z,20.30
2022-07-30T05:53:10.970Z,20.40
2022-07-30T05:56:13.994Z,20.50
2022-07-30T05:59:17.102Z,20.50
2022-07-30T06:02:20.160Z,20.50
2022-07-30T06:05:29.304Z,20.60
2022-07-30T06:08:32.328Z,20.70
2022-07-30T06:11:35.258Z,20.70
2022-07-30T06:14:38.235Z,20.70
2022-07-30T06:17:51.101Z,20.80
2022-07-30T06:21:01.911Z,20.80
2022-07-30T06:24:05.090Z,20.90
2022-07-30T06:27:08.194Z,20.90
2022-07-30T06:30:12.496Z,21.00
2022-07-30T06:33:15.973Z,21.00
2022-07-30T06:36:20.606Z,21.10
2022-07-30T06:42:50.572Z,21.30
2022-07-30T06:45:53.719Z,21.50
2022-07-30T06:48:56.750Z,21.60
2022-07-30T06:52:01.485Z,21.70
2022-07-30T06:55:05.520Z,21.80
2022-07-30T06:58:08.388Z,21.90
2022-07-30T07:01:11.688Z,22.00
2022-07-30T07:04:14.860Z,22.10
2022-07-30T07:07:31.747Z,22.20
2022-07-30T07:10:42.275Z,22.30
2022-07-30T07:13:45.450Z,22.40
2022-07-30T07:16:49.646Z,22.50
2022-07-30T07:19:59.676Z,22.50
2022-07-30T07:23:09.374Z,22.50
2022-07-30T07:26:15.570Z,22.50
2022-07-30T07:29:18.515Z,22.50
2022-07-30T07:32:21.493Z,22.50
2022-07-30T07:35:24.414Z,22.50
2022-07-30T07:38:28.815Z,22.50
2022-07-30T07:41:48.706Z,22.50
2022-07-30T07:44:52.373Z,22.60
2022-07-30T07:47:55.372Z,22.60
2022-07-30T07:51:00.391Z,22.70
2022-07-30T07:54:21.002Z,22.80
2022-07-30T07:57:24.368Z,22.90
2022-07-30T08:00:27.289Z,23.00
2022-07-30T08:03:30.436Z,23.00
2022-07-30T08:06:33.453Z,23.10
2022-07-30T08:09:40.785Z,23.20
2022-07-30T08:12:47.445Z,23.30
2022-07-30T08:15:50.406Z,23.40
2022-07-30T08:18:53.347Z,23.40
2022-07-30T08:21:56.298Z,23.50
2022-07-30T08:25:00.592Z,23.60
2022-07-30T08:28:07.012Z,23.70
2022-07-30T08:31:10.269Z,23.90
2022-07-30T08:34:13.675Z,24.00
2022-07-30T08:37:16.704Z,24.00
2022-07-30T08:40:21.868Z,24.00
2022-07-30T08:43:26.754Z,24.10
2022-07-30T08:46:33.041Z,24.20
2022-07-30T08:49:36.588Z,24.30
2022-07-30T08:52:39.662Z,24.40
2022-07-30T08:55:44.595Z,24.50
2022-07-30T08:58:48.364Z,24.50
2022-07-30T09:01:52.115Z,24.50
2022-07-30T09:04:55.785Z,24.50
2022-07-30T09:07:58.885Z,24.50
2022-07-30T09:11:03.264Z,24.60
2022-07-30T09:14:10.852Z,24.80
2022-07-30T09:17:14.067Z,24.90
2022-07-30T09:20:17.670Z,25.00
2022-07-30T09:23:20.688Z,25.10
2022-07-30T09:26:25.043Z,25.30
2022-07-30T09:29:30.082Z,25.40
2022-07-30T09:32:49.656Z,25.40
2022-07-30T09:35:57.490Z,25.50
2022-07-30T09:39:00.538Z,25.60
2022-07-30T09:42:18.059Z,25.60
2022-07-30T09:45:21.159Z,25.60
2022-07-30T09:48:25.682Z,25.50
2022-07-30T09:51:56.227Z,25.50
2022-07-30T09:55:00.270Z,25.40
2022-07-30T09:58:06.656Z,25.50
2022-07-30T10:01:11.644Z,25.50
2022-07-30T10:04:24.984Z,25.50
2022-07-30T10:07:28.036Z,25.60
2022-07-30T10:10:32.920Z,25.60
2022-07-30T10:13:39.287Z,25.70
2022-07-30T10:16:42.996Z,25.90
2022-07-30T10:19:47.457Z,26.20
2022-07-30T10:22:52.490Z,26.20
2022-07-30T10:25:57.038Z,26.30
2022-07-30T10:29:02.740Z,26.50
2022-07-30T10:32:06.813Z,26.50
2022-07-30T10:35:13.732Z,26.70
2022-07-30T10:38:41.706Z,26.60
2022-07-30T10:41:57.256Z,26.70
2022-07-30T10:45:18.474Z,26.80
2022-07-30T10:48:22.289Z,27.00
2022-07-30T10:51:44.125Z,26.80
2022-07-30T10:54:54.626Z,26.80
2022-07-30T10:58:04.271Z,26.80
2022-07-30T11:01:18.546Z,26.80
2022-07-30T11:04:25.594Z,26.70
2022-07-30T11:07:31.527Z,26.70
2022-07-30T11:10:39.628Z,26.80
2022-07-30T11:13:54.273Z,26.80
2022-07-30T11:17:02.683Z,27.00
2022-07-30T11:20:12.214Z,27.20
2022-07-30T11:23:37.742Z,27.30
2022-07-30T11:26:50.016Z,27.40
2022-07-30T11:29:53.056Z,27.40
2022-07-30T11:33:23.495Z,27.20
2022-07-30T11:36:35.830Z,27.00
2022-07-30T11:40:12.503Z,26.90
2022-07-30T11:43:21.828Z,26.90
2022-07-30T11:46:49.451Z,27.10
2022-07-30T11:49:54.249Z,27.20
2022-07-30T11:52:59.556Z,27.30
2022-07-30T11:56:03.425Z,27.40
2022-07-30T11:59:07.890Z,27.30
2022-07-30T12:02:10.882Z,27.50
2022-07-30T12:05:15.581Z,27.50
2022-07-30T12:08:33.525Z,27.60
2022-07-30T12:11:39.218Z,27.60
2022-07-30T12:14:42.098Z,27.50
2022-07-30T12:17:46.004Z,27.60
2022-07-30T12:20:57.603Z,27.70
2022-07-30T12:24:04.485Z,27.70
2022-07-30T12:27:08.141Z,27.70
2022-07-30T12:30:11.655Z,27.60
2022-07-30T12:33:15.508Z,27.70
2022-07-30T12:36:31.890Z,28.00
2022-07-30T12:39:34.848Z,28.10
2022-07-30T12:42:38.746Z,28.20
2022-07-30T12:45:52.194Z,28.10
2022-07-30T12:49:01.209Z,28.00
2022-07-30T12:52:18.441Z,28.00
2022-07-30T12:55:30.912Z,27.80
2022-07-30T12:58:37.789Z,27.80
2022-07-30T13:01:41.873Z,27.70
2022-07-30T13:05:10.950Z,27.60
2022-07-30T13:08:16.501Z,27.80
2022-07-30T13:11:20.466Z,28.20
2022-07-30T13:14:24.643Z,28.20
2022-07-30T13:17:29.766Z,28.40
2022-07-30T13:20:32.681Z,28.20
2022-07-30T13:23:37.690Z,28.20
2022-07-30T13:26:40.683Z,28.20
2022-07-30T13:29:43.669Z,28.30
2022-07-30T13:32:46.510Z,28.20
2022-07-30T13:35:49.638Z,28.10
2022-07-30T13:38:53.967Z,28.10
2022-07-30T13:41:57.012Z,28.20
2022-07-30T13:44:59.952Z,28.30
2022-07-30T13:48:03.943Z,28.60
2022-07-30T13:51:07.260Z,28.60
2022-07-30T13:54:12.506Z,28.70
2022-07-30T13:57:15.544Z,28.70
2022-07-30T14:00:18.816Z,28.60
2022-07-30T14:03:21.797Z,28.80
2022-07-30T14:06:24.778Z,28.80
2022-07-30T14:09:29.098Z,28.70
2022-07-30T14:12:32.012Z,28.50
2022-07-30T14:15:34.977Z,28.20
2022-07-30T14:18:37.884Z,28.20
2022-07-30T14:21:40.798Z,28.30
2022-07-30T14:24:45.095Z,28.40
2022-07-30T14:27:48.294Z,28.30
2022-07-30T14:30:51.214Z,28.20
2022-07-30T14:33:54.159Z,28.30
2022-07-30T14:36:57.114Z,28.40
2022-07-30T14:40:01.463Z,28.60
2022-07-30T14:43:04.513Z,28.60
2022-07-30T14:46:09.583Z,28.70
2022-07-30T14:49:12.564Z,28.80
2022-07-30T14:52:18.843Z,28.70
2022-07-30T14:55:23.102Z,28.50
2022-07-30T14:58:26.162Z,28.30
2022-07-30T15:01:29.150Z,28.30
2022-07-30T15:04:32.138Z,28.40
2022-07-30T15:07:35.087Z,28.50
2022-07-30T15:10:40.935Z,28.30
2022-07-30T15:13:50.138Z,28.00
2022-07-30T15:16:53.733Z,27.80
2022-07-30T15:19:56.734Z,27.80
2022-07-30T15:22:59.623Z,27.80
2022-07-30T15:26:03.985Z,27.70
2022-07-30T15:29:11.656Z,27.60
2022-07-30T15:32:17.344Z,27.60
2022-07-30T15:35:20.256Z,27.50
2022-07-30T15:38:23.262Z,27.50
2022-07-30T15:41:27.583Z,27.50
2022-07-30T15:44:30.597Z,27.50
2022-07-30T15:47:33.529Z,27.40
2022-07-30T15:50:36.608Z,27.40
2022-07-30T15:53:39.508Z,27.50
2022-07-30T15:56:45.236Z,27.50
2022-07-30T15:59:48.167Z,27.70
2022-07-30T16:02:51.436Z,27.80
2022-07-30T16:05:54.400Z,27.80
2022-07-30T16:08:57.331Z,27.60
2022-07-30T16:12:02.163Z,27.40
2022-07-30T16:15:06.057Z,27.30
2022-07-30T16:18:08.976Z,27.20
2022-07-30T16:21:12.529Z,27.20
2022-07-30T16:24:15.506Z,27.10
2022-07-30T16:27:20.191Z,27.00
2022-07-30T16:30:27.280Z,26.90
2022-07-30T16:33:30.636Z,26.80
2022-07-30T16:36:33.890Z,26.70
2022-07-30T16:39:37.048Z,26.50
2022-07-30T16:42:41.333Z,26.50
2022-07-30T16:45:44.720Z,26.30
2022-07-30T16:48:47.720Z,26.30
2022-07-30T16:51:54.075Z,26.30
2022-07-30T16:54:57.022Z,26.20
2022-07-30T16:58:01.440Z,26.10
2022-07-30T17:01:04.710Z,26.10
2022-07-30T17:04:07.632Z,25.90
2022-07-30T17:07:10.562Z,25.80
2022-07-30T17:10:13.706Z,25.70
2022-07-30T17:13:18.156Z,25.50
2022-07-30T17:16:21.415Z,25.40
2022-07-30T17:19:24.348Z,25.40
2022-07-30T17:22:27.316Z,25.30
2022-07-30T17:25:30.482Z,25.20
2022-07-30T17:28:34.870Z,25.10
2022-07-30T17:31:39.433Z,25.10
2022-07-30T17:34:42.563Z,25.00
2022-07-30T17:37:45.506Z,24.90
2022-07-30T17:40:48.635Z,24.80
2022-07-30T17:43:52.928Z,24.80
2022-07-30T17:46:55.882Z,24.70
2022-07-30T17:49:58.777Z,24.60
2022-07-30T17:53:03.577Z,24.60
2022-07-30T17:56:07.414Z,24.50
2022-07-30T17:59:30.949Z,24.40
2022-07-30T18:02:34.306Z,24.40
2022-07-30T18:05:37.207Z,24.40
2022-07-30T18:08:40.110Z,24.30
2022-07-30T18:11:43.714Z,24.20
2022-07-30T18:14:48.022Z,24.10
2022-07-30T18:17:51.000Z,24.00
2022-07-30T18:20:53.930Z,23.90
2022-07-30T18:23:56.860Z,23.80
2022-07-30T18:27:00.869Z,23.70
2022-07-30T18:30:05.869Z,23.70
2022-07-30T18:33:09.042Z,23.60
2022-07-30T18:36:12.168Z,23.50
2022-07-30T18:39:15.181Z,23.50
2022-07-30T18:42:18.058Z,23.40
2022-07-30T18:45:22.757Z,23.30
2022-07-30T18:48:26.483Z,23.20
2022-07-30T18:51:29.452Z,23.10
2022-07-30T18:54:32.521Z,23.10
2022-07-30T18:57:36.041Z,23.00
2022-07-30T19:00:43.220Z,22.90
2022-07-30T19:03:46.594Z,22.80
2022-07-30T19:06:49.660Z,22.70
2022-07-30T19:09:55.438Z,22.70
2022-07-30T19:12:58.360Z,22.60
2022-07-30T19:16:02.609Z,22.50
2022-07-30T19:19:05.830Z,22.50
2022-07-30T19:22:08.797Z,22.50
2022-07-30T19:25:11.954Z,22.50
2022-07-30T19:28:17.006Z,22.50
2022-07-30T19:31:21.474Z,22.50
2022-07-30T19:34:24.450Z,22.50
2022-07-30T19:37:27.392Z,22.50
2022-07-30T19:40:30.564Z,22.50
2022-07-30T19:43:34.001Z,22.50
2022-07-30T19:46:38.628Z,22.40
2022-07-30T19:49:44.111Z,22.40
2022-07-30T19:52:51.583Z,22.40
2022-07-30T19:56:11.409Z,22.40
2022-07-30T19:59:15.335Z,22.40
2022-07-30T20:02:19.678Z,22.40
2022-07-30T20:05:25.596Z,22.30
2022-07-30T20:08:33.442Z,22.30
2022-07-30T20:11:36.651Z,22.20
2022-07-30T20:14:43.293Z,22.20
2022-07-30T20:17:47.950Z,22.10
2022-07-30T20:20:50.933Z,22.20
2022-07-30T20:23:54.497Z,22.10
2022-07-30T20:26:57.652Z,22.10
2022-07-30T20:30:00.527Z,22.00
2022-07-30T20:33:05.413Z,22.00
2022-07-30T20:36:10.333Z,21.90
2022-07-30T20:39:16.686Z,21.80
2022-07-30T20:42:21.894Z,21.70
2022-07-30T20:45:40.256Z,21.60
2022-07-30T20:48:45.167Z,21.60
2022-07-30T20:51:50.318Z,21.50
2022-07-30T20:54:53.369Z,21.50
2022-07-30T20:58:07.996Z,21.30
2022-07-30T21:01:17.569Z,21.30
2022-07-30T21:04:25.515Z,21.20
2022-07-30T21:07:36.447Z,21.10
2022-07-30T21:10:40.898Z,21.10
2022-07-30T21:13:47.711Z,21.00
2022-07-30T21:16:55.667Z,20.90
2022-07-30T21:20:00.339Z,20.90
2022-07-30T21:23:05.993Z,20.80
2022-07-30T21:26:13.921Z,20.80
2022-07-30T21:29:17.978Z,20.70
2022-07-30T21:32:21.172Z,20.70
2022-07-30T21:35:31.720Z,20.60
2022-07-30T21:38:35.436Z,20.60
2022-07-30T21:41:40.927Z,20.50
2022-07-30T21:44:43.987Z,20.50
2022-07-30T21:47:48.702Z,20.40
2022-07-30T21:50:53.551Z,20.40
2022-07-30T21:53:57.870Z,20.30
2022-07-30T21:57:01.555Z,20.30
2022-07-30T22:00:09.155Z,20.20
2022-07-30T22:04:03.169Z,20.20
2022-07-30T22:06:40.462Z,20.10
2022-07-30T22:09:44.182Z,20.10
2022-07-30T22:12:47.114Z,20.10
2022-07-30T22:15:50.917Z,20.00
2022-07-30T22:18:53.857Z,20.00
2022-07-30T22:21:58.089Z,20.00
2022-07-30T22:25:06.966Z,20.00
2022-07-30T22:28:13.501Z,19.90
2022-07-30T22:31:16.457Z,19.90
2022-07-30T22:34:19.522Z,19.90
2022-07-30T22:37:23.863Z,19.90
2022-07-30T22:40:35.067Z,19.80
2022-07-30T22:43:40.919Z,19.80
2022-07-30T22:46:44.145Z,19.70
2022-07-30T22:49:51.983Z,19.70
2022-07-30T22:56:23.857Z,19.70
2022-07-30T22:59:57.659Z,19.70
2022-07-30T23:02:51.644Z,19.60
2022-07-30T23:05:55.351Z,19.50
2022-07-30T23:09:01.208Z,19.50
2022-07-30T23:12:04.524Z,19.50
2022-07-30T23:12:30.688Z,19.70
2022-07-30T23:15:09.034Z,19.50
2022-07-30T23:18:12.119Z,19.50
2022-07-30T23:21:15.189Z,19.50
2022-07-30T23:24:19.802Z,19.40
2022-07-30T23:27:22.738Z,19.40
2022-07-30T23:30:32.032Z,19.30
2022-07-30T23:33:37.334Z,19.30
2022-07-30T23:36:40.294Z,19.30
2022-07-30T23:39:44.610Z,19.30
2022-07-30T23:42:50.128Z,19.30
2022-07-30T23:45:53.179Z,19.30
2022-07-30T23:48:56.205Z,19.20
2022-07-30T23:51:59.808Z,19.20
2022-07-30T23:55:04.344Z,19.20
2022-07-30T23:58:07.500Z,19.10
